Boston, Massachusetts
Traffic Map
Current Weather Conditions
Boston, Massachusetts
Overcast
Overcast
22°
Feels Like: 22°
Wind Chill: 22° Ceiling: 8000
Heat Index: 22° Visibility: 10mi
Dew Point: 18° Wind: 5mph
Humidity: 76% Direction: 60° (ENE)
Pressure: 29.77in Gusts: 0mph
Raw Report DataKBOS 242154Z 06004KT 10SM FEW070 BKN080 BKN150 OVC220 22/18 A2977 RMK AO2 SLP081 T02220178
Traffic Incident Summary
Active as of:
Severity:
Category:
InformationThere was an issue retrieving the traffic information for this location. Please try a different location or try again shortly.
Advertisements